Time;durP1;ratioP1;P1;durP2;ratioP2;P2;SDS_P1;SDS_P2;PMS_P1;PMS_P2;Temp;Humidity;BMP_temperature;BMP_pressure;BME280_temperature;BME280_humidity;BME280_pressure;Samples;Min_cycle;Max_cycle;Signal;HPM_P1;HPM_P2
2022/09/28 00:01:14;;;;;;;8.88;3.67;;;6.90;99.90;;;;;;5013190;28;20042;-71
2022/09/28 00:03:40;;;;;;;8.93;3.05;;;6.80;99.90;;;;;;5012896;28;20045;-70
2022/09/28 00:06:07;;;;;;;6.75;2.75;;;6.80;99.90;;;;;;5013288;28;20057;-70
2022/09/28 00:08:34;;;;;;;8.25;3.00;;;6.80;99.90;;;;;;4995732;28;20625;-71
2022/09/28 00:11:01;;;;;;;8.00;2.97;;;6.80;99.90;;;;;;5013236;28;20041;-70
2022/09/28 00:13:28;;;;;;;8.10;2.90;;;6.80;99.90;;;;;;5012297;28;20133;-71
2022/09/28 00:16:09;;;;;;;7.85;3.13;;;6.70;99.90;;;;;;5012819;28;20050;-71
2022/09/28 00:18:35;;;;;;;8.35;3.10;;;6.70;99.90;;;;;;4995386;28;20054;-71
2022/09/28 00:21:21;;;;;;;8.93;3.13;;;6.70;99.90;;;;;;5012868;28;20501;-69
2022/09/28 00:26:33;;;;;;;7.10;2.85;;;6.60;99.90;;;;;;5012972;28;20054;-73
2022/09/28 00:29:01;;;;;;;7.57;3.15;;;7.00;99.90;;;;;;5012848;28;20060;-74
2022/09/28 00:31:58;;;;;;;9.23;2.97;;;7.00;99.90;;;;;;5012014;28;20095;-74
2022/09/28 00:34:30;;;;;;;8.35;2.80;;;6.60;99.90;;;;;;4989909;28;20116;-73
2022/09/28 00:36:57;;;;;;;7.57;2.92;;;6.60;99.90;;;;;;4995277;28;20092;-73
2022/09/28 00:39:23;;;;;;;7.15;2.97;;;6.50;99.90;;;;;;4995297;28;20046;-72
2022/09/28 00:41:49;;;;;;;8.40;3.00;;;6.50;99.90;;;;;;5015361;28;20050;-73
2022/09/28 00:44:32;;;;;;;8.63;3.38;;;6.80;99.90;;;;;;5013092;28;20045;-73
2022/09/28 00:47:18;;;;;;;6.72;2.90;;;6.40;99.90;;;;;;5012190;28;20046;-73
2022/09/28 00:49:59;;;;;;;7.82;3.15;;;6.40;99.90;;;;;;5012772;28;20034;-73
2022/09/28 00:52:29;;;;;;;10.27;3.30;;;6.40;99.90;;;;;;5012828;28;20465;-74
2022/09/28 00:54:58;;;;;;;9.07;3.20;;;6.40;99.90;;;;;;5013563;28;20077;-72
2022/09/28 00:57:24;;;;;;;9.68;3.58;;;6.30;99.90;;;;;;5013327;28;20049;-72
2022/09/28 00:59:51;;;;;;;6.82;3.15;;;6.30;99.90;;;;;;5012470;28;20552;-72
2022/09/28 01:02:18;;;;;;;8.68;3.20;;;6.50;99.90;;;;;;5012058;28;20415;-71
2022/09/28 01:04:44;;;;;;;7.55;3.17;;;6.30;99.90;;;;;;4978809;28;20053;-72
2022/09/28 01:07:11;;;;;;;7.18;3.22;;;6.20;99.90;;;;;;5012122;28;20418;-74
2022/09/28 01:09:38;;;;;;;8.43;3.50;;;6.20;99.90;;;;;;5012604;28;20476;-74
2022/09/28 01:12:04;;;;;;;8.80;3.33;;;6.10;99.90;;;;;;5012584;28;20402;-74
2022/09/28 01:14:30;;;;;;;8.45;3.30;;;6.10;99.90;;;;;;4995260;28;20046;-71
2022/09/28 01:17:05;;;;;;;9.02;3.30;;;6.10;99.90;;;;;;5012489;28;20050;-74
2022/09/28 01:20:04;;;;;;;10.05;3.70;;;6.10;99.90;;;;;;4994380;28;20510;-74
2022/09/28 01:22:41;;;;;;;7.43;3.05;;;6.00;99.90;;;;;;5012243;28;20057;-72
2022/09/28 01:25:38;;;;;;;6.97;2.92;;;6.10;99.90;;;;;;5012284;28;20421;-73
2022/09/28 01:28:10;;;;;;;7.15;2.90;;;6.00;99.90;;;;;;5012611;28;20111;-74
2022/09/28 01:31:08;;;;;;;9.20;3.67;;;6.80;99.90;;;;;;5012262;28;20061;-73
2022/09/28 01:33:44;;;;;;;10.55;3.92;;;5.90;99.90;;;;;;5012626;28;20486;-74
2022/09/28 01:36:16;;;;;;;8.30;3.30;;;5.90;99.90;;;;;;5015225;28;20535;-72
2022/09/28 01:38:51;;;;;;;8.82;3.03;;;5.90;99.90;;;;;;5015989;28;20041;-74
2022/09/28 01:41:19;;;;;;;5.80;2.38;;;5.90;99.90;;;;;;5015711;28;20107;-75
2022/09/28 01:43:50;;;;;;;7.55;2.67;;;5.80;99.90;;;;;;5015712;28;20509;-75
2022/09/28 01:46:30;;;;;;;7.65;2.65;;;5.70;99.90;;;;;;5015536;28;20172;-72
2022/09/28 01:48:57;;;;;;;6.05;2.20;;;5.70;99.90;;;;;;4997887;28;20128;-71
2022/09/28 01:51:33;;;;;;;7.60;2.80;;;6.00;99.90;;;;;;5014953;28;20050;-72
2022/09/28 01:54:18;;;;;;;8.32;3.15;;;5.60;99.90;;;;;;5015557;28;20078;-72
2022/09/28 01:56:50;;;;;;;7.43;2.70;;;5.60;99.90;;;;;;5015346;28;20042;-71
2022/09/28 01:59:20;;;;;;;6.00;2.43;;;5.60;99.90;;;;;;5015123;28;20046;-71
2022/09/28 02:02:02;;;;;;;6.55;2.35;;;5.50;99.90;;;;;;4981091;28;20297;-72
2022/09/28 02:04:35;;;;;;;9.90;3.22;;;5.50;99.90;;;;;;5015497;28;20042;-72
2022/09/28 02:07:11;;;;;;;7.63;3.38;;;5.60;99.90;;;;;;4997217;28;20129;-70
2022/09/28 02:09:46;;;;;;;8.48;2.78;;;5.50;99.90;;;;;;5015076;28;20050;-71
2022/09/28 02:12:35;;;;;;;7.50;3.10;;;5.50;99.90;;;;;;5015243;28;20061;-71
2022/09/28 02:15:37;;;;;;;6.80;2.85;;;5.50;99.90;;;;;;5015014;28;20513;-72
2022/09/28 02:18:03;;;;;;;7.03;2.67;;;5.50;99.90;;;;;;4994618;28;20445;-72
2022/09/28 02:20:31;;;;;;;6.78;2.40;;;5.40;99.90;;;;;;4997452;28;20049;-72
2022/09/28 02:23:00;;;;;;;5.93;2.30;;;5.40;99.90;;;;;;5014579;28;20096;-72
2022/09/28 02:25:38;;;;;;;6.00;2.30;;;5.40;99.90;;;;;;5014574;28;20485;-72
2022/09/28 02:28:06;;;;;;;7.60;3.08;;;5.30;99.90;;;;;;5014995;28;20046;-71
2022/09/28 02:30:35;;;;;;;5.95;2.17;;;5.30;99.90;;;;;;5014782;28;20049;-71
2022/09/28 02:33:25;;;;;;;8.05;2.97;;;5.30;99.90;;;;;;4997220;28;20041;-72
2022/09/28 02:35:51;;;;;;;7.35;2.78;;;5.30;99.90;;;;;;5015002;28;20125;-71
2022/09/28 02:38:17;;;;;;;9.05;2.70;;;5.30;99.90;;;;;;4996585;28;20074;-72
2022/09/28 02:40:51;;;;;;;8.65;2.30;;;5.30;99.90;;;;;;5014521;28;20053;-72
2022/09/28 02:43:24;;;;;;;12.40;2.78;;;5.80;99.90;;;;;;5014272;28;20081;-72
2022/09/28 02:46:14;;;;;;;19.67;3.47;;;5.40;99.90;;;;;;4995881;28;20092;-71
2022/09/28 02:48:55;;;;;;;25.35;4.00;;;5.40;99.90;;;;;;5014629;28;20397;-71
2022/09/28 02:52:05;;;;;;;32.47;3.38;;;5.40;99.90;;;;;;4997000;28;20046;-72
2022/09/28 02:55:00;;;;;;;17.27;2.63;;;5.30;99.90;;;;;;4953142;29;20059;-71
2022/09/28 02:57:34;;;;;;;5.68;2.28;;;5.30;99.90;;;;;;4953908;29;20047;-72
2022/09/28 03:00:10;;;;;;;11.40;2.97;;;5.30;99.90;;;;;;4937754;29;20052;-70
2022/09/28 03:02:54;;;;;;;15.98;2.55;;;5.20;99.90;;;;;;4953967;29;20543;-70
2022/09/28 03:05:23;;;;;;;5.72;2.50;;;5.20;99.90;;;;;;4953653;29;20599;-72
2022/09/28 03:08:00;;;;;;;9.95;2.17;;;5.20;99.90;;;;;;4953541;29;20110;-71
2022/09/28 03:10:42;;;;;;;6.18;2.05;;;5.20;99.90;;;;;;4953079;29;20097;-71
2022/09/28 03:13:09;;;;;;;5.03;2.08;;;5.20;99.90;;;;;;4937661;29;20043;-70
2022/09/28 03:15:35;;;;;;;10.07;2.55;;;5.20;99.90;;;;;;4953565;29;20044;-71
2022/09/28 03:18:01;;;;;;;5.80;2.20;;;5.20;99.90;;;;;;4953313;29;20070;-71
2022/09/28 03:20:29;;;;;;;6.20;2.42;;;5.20;99.90;;;;;;4953435;29;20137;-72
2022/09/28 03:22:55;;;;;;;6.45;2.75;;;5.20;99.90;;;;;;4953463;29;20128;-70
2022/09/28 03:25:21;;;;;;;8.45;2.90;;;5.20;99.90;;;;;;4953228;29;20071;-70
2022/09/28 03:27:47;;;;;;;10.43;3.03;;;5.30;99.90;;;;;;4952758;29;20062;-71
2022/09/28 03:30:12;;;;;;;10.55;3.40;;;5.60;99.90;;;;;;4964023;28;20058;-71
2022/09/28 03:32:39;;;;;;;10.90;3.10;;;5.30;99.90;;;;;;5013574;28;20048;-72
2022/09/28 03:35:06;;;;;;;10.35;4.00;;;5.30;99.90;;;;;;5013673;28;20052;-71
2022/09/28 03:37:32;;;;;;;10.57;4.32;;;5.40;99.90;;;;;;5013583;28;20058;-70
2022/09/28 03:39:58;;;;;;;13.27;5.43;;;5.50;99.90;;;;;;5013528;28;20133;-71
2022/09/28 03:42:23;;;;;;;14.23;5.13;;;5.60;99.90;;;;;;5012879;28;20045;-72
2022/09/28 03:44:49;;;;;;;23.38;6.38;;;5.70;99.90;;;;;;5013601;28;20038;-72
2022/09/28 03:47:16;;;;;;;22.58;6.50;;;5.80;99.90;;;;;;5013773;28;20038;-72
2022/09/28 03:49:43;;;;;;;33.42;7.50;;;5.90;99.90;;;;;;5013329;28;20045;-72
2022/09/28 03:52:09;;;;;;;59.60;8.68;;;5.90;99.90;;;;;;4996375;28;20054;-69
2022/09/28 03:54:34;;;;;;;73.18;8.10;;;6.00;99.90;;;;;;5014203;28;20099;-71
2022/09/28 03:57:00;;;;;;;55.58;8.05;;;6.10;99.90;;;;;;5017759;28;20050;-72
2022/09/28 03:59:26;;;;;;;52.03;8.85;;;6.10;99.90;;;;;;5015296;28;20044;-73
2022/09/28 04:01:51;;;;;;;35.90;6.60;;;6.10;99.90;;;;;;5013661;28;20038;-72
2022/09/28 04:04:18;;;;;;;28.65;5.40;;;6.10;99.90;;;;;;5013249;28;20489;-71
2022/09/28 04:06:43;;;;;;;33.10;5.93;;;6.20;99.90;;;;;;5013183;28;20397;-71
2022/09/28 04:09:10;;;;;;;32.47;5.93;;;6.10;99.90;;;;;;5013306;28;20050;-72
2022/09/28 04:11:36;;;;;;;37.85;5.90;;;6.20;99.90;;;;;;5013118;28;20128;-70
2022/09/28 04:14:03;;;;;;;27.92;6.20;;;6.20;99.90;;;;;;5012581;28;20077;-72
2022/09/28 04:16:28;;;;;;;21.85;6.68;;;6.10;99.90;;;;;;5013158;28;20046;-72
2022/09/28 04:18:54;;;;;;;36.38;6.53;;;6.10;99.90;;;;;;5012899;28;20096;-72
2022/09/28 04:21:20;;;;;;;27.05;6.60;;;6.10;99.90;;;;;;5012982;28;20046;-72
2022/09/28 04:23:47;;;;;;;23.33;5.88;;;6.10;99.90;;;;;;5013029;28;20050;-71
2022/09/28 04:26:24;;;;;;;27.77;6.20;;;6.10;99.90;;;;;;5012856;28;20046;-72
2022/09/28 04:31:44;;;;;;;19.42;5.82;;;6.10;99.90;;;;;;5012363;28;20092;-71
2022/09/28 04:34:10;;;;;;;24.60;6.82;;;6.10;99.90;;;;;;4995295;28;20077;-72
2022/09/28 04:36:36;;;;;;;24.90;6.20;;;6.10;99.90;;;;;;4995187;28;20049;-72
2022/09/28 04:39:02;;;;;;;33.45;6.55;;;6.10;99.90;;;;;;5012623;28;20433;-72
2022/09/28 04:41:28;;;;;;;59.97;8.45;;;6.10;99.90;;;;;;5012929;28;20829;-72
2022/09/28 04:43:53;;;;;;;39.47;6.30;;;6.10;99.90;;;;;;5012858;28;20046;-72
2022/09/28 04:46:19;;;;;;;21.90;6.25;;;6.10;99.90;;;;;;5012082;28;20398;-71
2022/09/28 04:48:45;;;;;;;16.45;6.10;;;6.00;99.90;;;;;;5012569;28;20406;-71
2022/09/28 04:51:11;;;;;;;20.85;6.28;;;6.00;99.90;;;;;;5012773;28;20049;-72
2022/09/28 04:53:37;;;;;;;39.17;6.47;;;6.00;99.90;;;;;;5012602;28;20485;-71
2022/09/28 04:56:09;;;;;;;18.00;5.30;;;6.00;99.90;;;;;;4995089;28;20402;-72
2022/09/28 04:58:35;;;;;;;23.77;5.82;;;6.00;99.90;;;;;;5027728;28;20044;-70
2022/09/28 05:01:04;;;;;;;17.77;5.50;;;6.00;99.90;;;;;;5032129;28;20405;-72
2022/09/28 05:03:30;;;;;;;20.48;5.68;;;6.10;99.90;;;;;;5031910;28;20497;-72
2022/09/28 05:05:56;;;;;;;45.63;6.10;;;6.00;99.90;;;;;;5032072;28;20056;-72
2022/09/28 05:08:21;;;;;;;22.73;5.40;;;6.00;99.90;;;;;;5033034;28;20100;-72
2022/09/28 05:10:47;;;;;;;21.42;5.53;;;5.90;99.90;;;;;;5036394;28;20045;-72
2022/09/28 05:13:13;;;;;;;17.33;4.85;;;5.90;99.90;;;;;;5037629;28;20069;-72
2022/09/28 05:15:41;;;;;;;19.40;5.30;;;6.00;99.90;;;;;;5036239;28;20042;-71
2022/09/28 05:18:07;;;;;;;31.25;5.78;;;5.90;99.90;;;;;;5017832;28;20049;-72
2022/09/28 05:20:38;;;;;;;26.90;4.80;;;5.90;99.90;;;;;;5034170;28;20061;-72
2022/09/28 05:23:04;;;;;;;27.63;4.88;;;5.80;99.90;;;;;;5017890;28;20052;-73
2022/09/28 05:25:29;;;;;;;21.67;4.45;;;5.70;99.90;;;;;;5036042;28;20049;-71
2022/09/28 05:27:56;;;;;;;20.73;4.60;;;5.90;99.90;;;;;;5035788;28;20049;-71
2022/09/28 05:30:22;;;;;;;15.75;4.50;;;5.70;99.90;;;;;;5035720;28;20488;-72
2022/09/28 05:32:49;;;;;;;21.73;4.78;;;5.70;99.90;;;;;;5018063;28;20053;-71
2022/09/28 05:35:16;;;;;;;27.00;5.38;;;5.80;99.90;;;;;;5017494;28;20095;-71
2022/09/28 05:37:42;;;;;;;32.85;4.80;;;5.80;99.90;;;;;;5017948;28;20072;-72
2022/09/28 05:40:08;;;;;;;28.92;4.68;;;5.70;99.90;;;;;;5035926;28;20045;-70
2022/09/28 05:42:34;;;;;;;17.20;4.50;;;5.70;99.90;;;;;;5035271;28;20507;-72
2022/09/28 05:45:05;;;;;;;9.23;3.80;;;5.70;99.90;;;;;;5035873;28;20045;-71
2022/09/28 05:47:37;;;;;;;13.75;4.32;;;5.70;99.90;;;;;;5006867;28;20508;-72
2022/09/28 05:50:03;;;;;;;9.52;3.72;;;5.70;99.90;;;;;;5025663;28;20073;-72
2022/09/28 05:52:29;;;;;;;20.88;4.22;;;5.70;99.90;;;;;;5020786;28;20200;-70
2022/09/28 05:54:55;;;;;;;19.55;3.47;;;5.70;99.90;;;;;;4982650;28;20114;-71
2022/09/28 05:57:20;;;;;;;17.23;4.05;;;5.70;99.90;;;;;;5015863;28;20056;-72
2022/09/28 05:59:46;;;;;;;14.88;4.15;;;5.70;99.90;;;;;;5015464;28;20094;-72
2022/09/28 06:02:12;;;;;;;10.93;3.88;;;5.70;99.90;;;;;;4998017;28;20061;-72
2022/09/28 06:04:37;;;;;;;9.15;3.63;;;5.70;99.90;;;;;;5013747;28;20466;-72
2022/09/28 06:07:03;;;;;;;16.25;3.50;;;5.70;99.90;;;;;;5014622;28;20489;-72
2022/09/28 06:09:29;;;;;;;10.98;3.75;;;5.70;99.90;;;;;;5015217;28;20124;-72
2022/09/28 06:11:58;;;;;;;9.95;3.83;;;5.60;99.90;;;;;;5015591;28;20132;-72
2022/09/28 06:14:24;;;;;;;25.33;4.28;;;5.60;99.90;;;;;;5015424;28;20052;-72
2022/09/28 06:16:49;;;;;;;18.17;3.83;;;5.50;99.90;;;;;;4997665;28;20424;-72
2022/09/28 06:19:15;;;;;;;22.52;3.90;;;5.50;99.90;;;;;;5014935;28;20068;-72
2022/09/28 06:21:40;;;;;;;10.55;3.50;;;6.20;99.90;;;;;;5014668;28;20434;-73
2022/09/28 06:24:06;;;;;;;14.82;3.28;;;5.30;99.90;;;;;;5014894;28;20481;-72
2022/09/28 06:26:32;;;;;;;14.98;3.47;;;5.30;99.90;;;;;;5015454;28;20049;-74
2022/09/28 06:28:59;;;;;;;13.68;3.40;;;5.30;99.90;;;;;;4981555;28;20042;-72
2022/09/28 06:31:28;;;;;;;11.15;3.15;;;5.20;99.90;;;;;;5015041;28;20079;-71
2022/09/28 06:33:54;;;;;;;12.40;3.13;;;5.30;99.90;;;;;;5014826;28;20077;-73
2022/09/28 06:36:21;;;;;;;9.65;2.83;;;5.30;99.90;;;;;;4997359;28;20085;-74
2022/09/28 06:38:47;;;;;;;9.55;2.50;;;5.30;99.90;;;;;;5014160;28;20053;-74
2022/09/28 06:41:12;;;;;;;13.15;3.20;;;5.30;99.90;;;;;;5016048;28;20443;-72
2022/09/28 06:43:45;;;;;;;11.25;2.80;;;5.40;99.90;;;;;;5014020;28;20044;-76
2022/09/28 06:46:12;;;;;;;9.23;3.00;;;5.40;99.90;;;;;;5021412;28;20045;-75
2022/09/28 06:48:38;;;;;;;15.95;3.35;;;5.90;99.90;;;;;;5017745;28;20397;-76
2022/09/28 06:51:05;;;;;;;7.47;2.75;;;5.40;99.90;;;;;;5015736;28;20068;-76
2022/09/28 06:53:31;;;;;;;7.60;2.17;;;5.40;99.90;;;;;;4992656;28;20497;-76
2022/09/28 06:55:57;;;;;;;19.02;3.00;;;6.60;99.90;;;;;;5007525;28;20081;-78
2022/09/28 06:58:23;;;;;;;9.52;2.63;;;5.50;99.90;;;;;;5033597;28;20034;-74
2022/09/28 07:00:50;;;;;;;18.17;3.13;;;5.50;99.90;;;;;;5033208;28;20099;-73
2022/09/28 07:03:21;;;;;;;15.18;3.20;;;5.40;99.90;;;;;;5029189;28;20034;-72
2022/09/28 07:05:57;;;;;;;11.13;2.50;;;5.40;99.90;;;;;;5016169;28;20136;-77
2022/09/28 07:08:27;;;;;;;8.23;2.20;;;5.40;99.90;;;;;;5001641;28;20081;-77
2022/09/28 07:10:56;;;;;;;13.35;2.78;;;5.40;99.90;;;;;;5030705;28;20041;-75
2022/09/28 07:13:29;;;;;;;8.55;2.53;;;5.40;99.90;;;;;;5025282;28;20042;-74
2022/09/28 07:15:56;;;;;;;12.75;2.92;;;5.50;99.90;;;;;;4984398;28;20389;-75
2022/09/28 07:18:25;;;;;;;8.90;3.03;;;5.50;99.90;;;;;;5031526;28;20053;-71
2022/09/28 07:20:51;;;;;;;7.72;3.08;;;5.50;99.90;;;;;;4990769;28;20461;-70
2022/09/28 07:23:19;;;;;;;12.88;2.70;;;5.60;99.90;;;;;;5012714;28;20096;-68
2022/09/28 07:25:47;;;;;;;12.93;2.67;;;5.10;99.90;;;;;;5007477;28;20060;-71
2022/09/28 07:28:16;;;;;;;15.15;2.90;;;5.70;99.90;;;;;;5010341;28;20049;-72
2022/09/28 07:30:45;;;;;;;7.45;2.63;;;5.70;99.90;;;;;;5021189;28;20464;-70
2022/09/28 07:36:16;;;;;;;21.42;3.35;;;5.90;99.90;;;;;;5000773;28;20051;-72
2022/09/28 07:38:42;;;;;;;17.02;3.08;;;5.90;99.90;;;;;;4990419;28;20056;-74
2022/09/28 07:41:31;;;;;;;17.45;3.28;;;6.00;99.90;;;;;;5010011;28;20089;-70
2022/09/28 07:44:14;;;;;;;9.93;2.75;;;6.00;99.90;;;;;;4989487;28;20049;-72
2022/09/28 07:46:43;;;;;;;12.93;2.80;;;6.10;99.90;;;;;;4991090;28;20042;-73
2022/09/28 07:49:22;;;;;;;;;;;;;;;;;;;;;
2022/09/28 07:51:56;;;;;;;13.27;2.85;;;6.30;99.90;;;;;;5005221;28;20168;-75
2022/09/28 07:54:22;;;;;;;12.60;3.55;;;6.40;99.90;;;;;;5019246;28;20133;-75
2022/09/28 07:56:47;;;;;;;19.77;3.72;;;6.40;99.90;;;;;;5011092;28;20512;-72
2022/09/28 07:59:17;;;;;;;9.73;3.17;;;6.60;99.90;;;;;;5009855;28;20408;-76
2022/09/28 08:01:43;;;;;;;17.23;3.25;;;6.90;99.90;;;;;;5027379;28;20042;-75
2022/09/28 08:04:08;;;;;;;11.80;3.05;;;7.20;99.90;;;;;;4998259;28;20381;-75
2022/09/28 08:06:34;;;;;;;8.60;2.80;;;7.00;99.90;;;;;;5006723;28;20054;-73
2022/09/28 08:09:00;;;;;;;12.95;3.22;;;6.80;99.90;;;;;;5028286;28;20396;-76
2022/09/28 08:11:26;;;;;;;10.68;3.10;;;6.90;99.90;;;;;;5006180;28;20096;-76
2022/09/28 08:13:54;;;;;;;11.70;3.10;;;6.90;99.90;;;;;;5004782;28;20041;-76
2022/09/28 08:16:20;;;;;;;15.27;3.53;;;6.90;99.90;;;;;;4994480;28;20073;-76
2022/09/28 08:18:48;;;;;;;22.33;4.18;;;7.10;99.90;;;;;;5003364;28;20038;-75
2022/09/28 08:23:57;;;;;;;8.23;3.22;;;7.80;99.90;;;;;;4996187;28;20453;-73
2022/09/28 08:26:27;;;;;;;9.10;3.42;;;7.50;99.90;;;;;;5014062;28;20041;-66
2022/09/28 08:28:53;;;;;;;14.13;3.17;;;7.90;99.90;;;;;;4981498;28;20075;-67
2022/09/28 08:31:19;;;;;;;8.55;3.13;;;7.60;99.90;;;;;;5027365;28;20815;-68
2022/09/28 08:33:44;;;;;;;11.30;2.95;;;7.70;99.90;;;;;;5005072;28;20089;-67
2022/09/28 08:36:10;;;;;;;9.25;3.22;;;8.20;99.90;;;;;;4993289;28;20068;-67
2022/09/28 08:38:36;;;;;;;9.93;3.80;;;7.90;99.90;;;;;;5027366;28;20053;-67
2022/09/28 08:41:23;;;;;;;10.55;3.13;;;8.00;99.90;;;;;;4996958;28;20084;-67
2022/09/28 08:44:12;;;;;;;9.50;3.58;;;8.00;99.90;;;;;;5007546;28;20054;-67
2022/09/28 08:46:43;;;;;;;10.32;3.80;;;8.10;99.90;;;;;;5023277;28;20056;-69
2022/09/28 08:49:30;;;;;;;12.63;3.95;;;8.10;99.90;;;;;;5034194;28;20057;-67
2022/09/28 08:52:22;;;;;;;9.00;3.30;;;8.10;99.90;;;;;;5033876;28;20107;-67
2022/09/28 08:54:57;;;;;;;11.57;3.63;;;8.30;99.90;;;;;;5018610;28;20046;-67
2022/09/28 08:57:29;;;;;;;8.68;2.80;;;8.40;99.90;;;;;;5036236;28;20053;-67
2022/09/28 08:59:58;;;;;;;12.88;3.75;;;8.50;99.90;;;;;;5036058;28;20126;-67
2022/09/28 09:02:27;;;;;;;10.13;3.90;;;8.60;99.90;;;;;;5035844;28;20128;-67
2022/09/28 09:04:53;;;;;;;12.23;4.05;;;8.90;99.90;;;;;;5036134;28;20533;-68
2022/09/28 09:07:42;;;;;;;10.57;3.80;;;8.90;99.90;;;;;;5035861;28;20064;-66
2022/09/28 09:10:21;;;;;;;9.52;3.50;;;8.70;99.90;;;;;;5035430;28;20045;-67
2022/09/28 09:13:46;;;;;;;9.77;3.90;;;8.90;99.90;;;;;;5036073;28;20420;-70
2022/09/28 09:16:20;;;;;;;10.20;3.50;;;8.90;99.90;;;;;;4947303;29;20095;-67
2022/09/28 09:19:26;;;;;;;8.75;3.08;;;9.00;99.90;;;;;;4955374;28;20633;-67
2022/09/28 09:22:08;;;;;;;9.60;3.67;;;9.20;99.90;;;;;;4864394;29;20053;-66
2022/09/28 09:24:53;;;;;;;12.52;4.00;;;9.20;99.90;;;;;;4863899;29;20096;-67
2022/09/28 09:27:36;;;;;;;8.77;3.20;;;9.70;99.90;;;;;;4867548;29;20409;-67
2022/09/28 09:30:08;;;;;;;11.82;3.97;;;9.50;99.90;;;;;;4852625;29;20626;-67
2022/09/28 09:32:36;;;;;;;9.50;3.22;;;8.70;99.90;;;;;;4853404;29;20575;-74
2022/09/28 09:35:39;;;;;;;10.70;3.22;;;9.80;99.90;;;;;;4870668;29;20083;-68
2022/09/28 09:38:23;;;;;;;11.57;3.55;;;9.40;99.90;;;;;;4870910;29;20140;-67
2022/09/28 09:41:18;;;;;;;10.80;3.22;;;9.50;99.90;;;;;;4868564;29;20136;-67
2022/09/28 09:43:46;;;;;;;6.45;2.60;;;9.60;99.90;;;;;;4844856;29;20065;-68
2022/09/28 09:46:12;;;;;;;12.13;2.95;;;9.70;99.90;;;;;;4845924;29;20110;-70
2022/09/28 09:48:58;;;;;;;9.57;3.10;;;9.70;99.90;;;;;;4845879;29;20053;-69
2022/09/28 09:52:07;;;;;;;9.00;3.55;;;9.80;99.90;;;;;;4861460;29;20053;-69
2022/09/28 09:54:43;;;;;;;8.10;3.08;;;9.80;99.90;;;;;;4897650;29;20063;-69
2022/09/28 09:57:14;;;;;;;8.55;3.25;;;9.80;99.90;;;;;;4948963;28;20430;-67
2022/09/28 09:59:41;;;;;;;8.48;3.03;;;10.40;99.90;;;;;;4982013;28;20053;-68
2022/09/28 10:02:27;;;;;;;7.47;2.85;;;10.20;99.90;;;;;;4998142;28;20057;-67
2022/09/28 10:05:03;;;;;;;8.55;3.28;;;10.70;99.90;;;;;;4981858;28;20183;-67
2022/09/28 10:07:55;;;;;;;9.75;3.70;;;10.40;99.90;;;;;;5015171;28;20480;-67
2022/09/28 10:10:29;;;;;;;7.77;3.07;;;10.50;99.90;;;;;;5002220;28;20125;-67
2022/09/28 10:12:56;;;;;;;8.57;3.05;;;10.90;99.90;;;;;;4997528;28;20053;-70
2022/09/28 10:15:30;;;;;;;8.57;3.03;;;10.70;99.90;;;;;;5015650;28;20070;-67
2022/09/28 10:18:05;;;;;;;8.65;3.13;;;10.90;99.90;;;;;;5015641;28;20543;-67
2022/09/28 10:20:34;;;;;;;8.13;3.03;;;11.00;99.90;;;;;;5015094;28;20490;-68
2022/09/28 10:23:05;;;;;;;7.03;2.50;;;11.40;99.90;;;;;;4996633;28;20104;-69
2022/09/28 10:25:35;;;;;;;8.03;2.83;;;11.30;99.90;;;;;;4997709;28;20042;-68
2022/09/28 10:28:05;;;;;;;7.13;2.58;;;10.90;99.90;;;;;;4998286;28;20050;-68
2022/09/28 10:30:40;;;;;;;7.82;2.65;;;10.80;99.90;;;;;;4997202;28;20092;-68
2022/09/28 10:33:35;;;;;;;7.25;2.97;;;10.70;99.90;;;;;;4981363;28;20064;-73
2022/09/28 10:36:05;;;;;;;7.63;2.50;;;10.70;99.90;;;;;;4997289;28;20115;-68
2022/09/28 10:38:33;;;;;;;6.53;2.40;;;10.90;99.90;;;;;;4997322;28;20049;-67
2022/09/28 10:41:10;;;;;;;7.40;2.75;;;11.20;99.90;;;;;;4996818;28;20041;-67
2022/09/28 10:44:09;;;;;;;5.78;1.95;;;12.00;99.90;;;;;;5015222;28;20565;-70
2022/09/28 10:46:37;;;;;;;6.93;2.00;;;11.80;99.90;;;;;;4997009;28;20095;-69
2022/09/28 10:49:06;;;;;;;6.65;2.30;;;12.10;99.90;;;;;;4996936;28;20049;-69
2022/09/28 10:51:48;;;;;;;6.88;2.47;;;12.80;99.90;;;;;;5014182;28;20042;-68
2022/09/28 10:54:17;;;;;;;5.78;1.67;;;12.60;99.90;;;;;;4996475;28;20054;-67
2022/09/28 10:56:43;;;;;;;10.05;1.98;;;12.80;99.90;;;;;;4997101;28;20057;-66
2022/09/28 10:59:32;;;;;;;4.68;1.73;;;13.00;99.90;;;;;;5014754;28;20410;-67
2022/09/28 11:02:00;;;;;;;4.93;1.55;;;13.90;99.90;;;;;;5001826;28;20061;-68
2022/09/28 11:04:28;;;;;;;4.35;1.70;;;13.40;99.90;;;;;;4997381;28;20128;-71
2022/09/28 11:06:59;;;;;;;3.58;1.42;;;13.40;99.90;;;;;;5013402;28;20053;-74
2022/09/28 11:09:29;;;;;;;5.80;1.80;;;13.50;99.90;;;;;;4980723;28;20506;-69
2022/09/28 11:11:57;;;;;;;5.05;1.55;;;13.50;99.90;;;;;;4996739;28;20056;-69
2022/09/28 11:14:36;;;;;;;8.40;1.90;;;13.70;99.90;;;;;;4979846;28;20511;-67
2022/09/28 11:17:27;;;;;;;4.55;1.60;;;13.70;99.90;;;;;;4980290;28;20394;-66
2022/09/28 11:19:54;;;;;;;4.22;1.50;;;13.80;99.90;;;;;;5014127;28;20038;-67
2022/09/28 11:22:29;;;;;;;2.85;1.10;;;13.80;99.90;;;;;;5013873;28;20046;-70
2022/09/28 11:25:17;;;;;;;4.05;1.00;;;14.00;99.90;;;;;;4996180;28;20038;-71
2022/09/28 11:27:52;;;;;;;4.80;1.85;;;13.70;99.90;;;;;;4979562;28;20485;-68
2022/09/28 11:30:39;;;;;;;2.63;1.15;;;14.00;99.90;;;;;;5013385;28;20111;-67
2022/09/28 11:33:43;;;;;;;4.43;1.15;;;14.10;99.90;;;;;;4995960;28;20140;-66
2022/09/28 11:36:12;;;;;;;2.63;1.13;;;14.40;99.90;;;;;;4898850;29;20111;-69
2022/09/28 11:38:58;;;;;;;5.93;1.20;;;14.50;99.90;;;;;;4914667;29;20151;-67
2022/09/28 11:41:42;;;;;;;3.72;1.30;;;14.20;99.90;;;;;;4898092;29;20151;-67
2022/09/28 11:44:35;;;;;;;4.45;1.20;;;14.10;99.90;;;;;;4898856;29;20413;-69
2022/09/28 11:47:28;;;;;;;2.78;1.23;;;14.20;99.90;;;;;;4899003;29;20053;-67
2022/09/28 11:50:19;;;;;;;2.75;1.10;;;14.30;99.90;;;;;;4914793;29;20560;-67
2022/09/28 11:52:59;;;;;;;3.08;1.00;;;14.30;99.90;;;;;;4883329;29;20055;-73
2022/09/28 11:55:54;;;;;;;2.35;0.90;;;14.30;99.90;;;;;;4914419;29;20536;-68
2022/09/28 11:58:52;;;;;;;2.83;1.20;;;14.40;99.90;;;;;;4879231;29;20064;-70
2022/09/28 12:01:49;;;;;;;3.70;1.02;;;14.50;99.90;;;;;;4894955;29;20103;-68
2022/09/28 12:04:22;;;;;;;4.22;1.02;;;14.60;99.90;;;;;;4839867;29;20144;-72
2022/09/28 12:06:57;;;;;;;2.60;1.13;;;14.80;99.90;;;;;;4840100;29;20124;-69
2022/09/28 12:09:40;;;;;;;4.00;1.30;;;14.60;99.90;;;;;;4839595;29;20057;-67
2022/09/28 12:12:24;;;;;;;3.50;1.20;;;14.70;99.90;;;;;;4875580;29;20103;-67
2022/09/28 12:14:54;;;;;;;2.20;0.90;;;14.70;99.90;;;;;;4895364;29;20090;-71
2022/09/28 12:17:27;;;;;;;3.80;0.95;;;14.80;99.90;;;;;;4895852;29;20063;-67
2022/09/28 12:20:02;;;;;;;3.17;1.00;;;15.00;99.90;;;;;;4895653;29;20132;-72
2022/09/28 12:22:39;;;;;;;4.32;1.30;;;14.90;99.90;;;;;;4896238;29;20061;-74
2022/09/28 12:25:15;;;;;;;3.72;1.00;;;15.10;99.90;;;;;;4893828;29;20040;-71
2022/09/28 12:27:59;;;;;;;2.58;1.00;;;14.90;99.90;;;;;;4902281;29;20056;-69
2022/09/28 12:30:34;;;;;;;3.30;1.00;;;14.60;99.90;;;;;;4877779;29;20048;-71
2022/09/28 12:33:35;;;;;;;4.10;1.27;;;14.50;99.90;;;;;;4951099;23;20041;-69
2022/09/28 12:36:55;;;;;;;3.05;1.17;;;14.40;99.90;;;;;;5032242;28;20048;-72
2022/09/28 12:39:44;;;;;;;2.75;1.13;;;14.10;99.90;;;;;;5023793;28;20150;-70
2022/09/28 12:42:20;;;;;;;4.63;1.70;;;14.10;99.90;;;;;;5066001;28;20045;-70
2022/09/28 12:44:50;;;;;;;6.30;2.38;;;14.30;99.90;;;;;;5046272;28;20040;-71
2022/09/28 12:47:38;;;;;;;3.60;1.27;;;14.50;99.90;;;;;;5041004;28;20568;-67
2022/09/28 12:50:53;;;;;;;2.15;1.00;;;14.80;99.90;;;;;;5023305;28;20057;-71
2022/09/28 12:53:25;;;;;;;4.35;1.30;;;15.10;99.90;;;;;;4931676;29;20055;-72
2022/09/28 12:55:55;;;;;;;3.60;1.30;;;15.20;99.90;;;;;;4928187;29;20091;-71
2022/09/28 12:58:37;;;;;;;3.15;1.10;;;15.10;99.90;;;;;;4923415;29;20067;-71
2022/09/28 13:01:10;;;;;;;2.75;0.82;;;15.40;99.90;;;;;;4914952;29;20142;-72
2022/09/28 13:04:10;;;;;;;3.53;1.30;;;15.50;99.90;;;;;;4930489;29;20088;-71
2022/09/28 13:07:01;;;;;;;2.17;1.00;;;15.50;99.90;;;;;;4932198;29;20052;-70
2022/09/28 13:09:40;;;;;;;5.00;0.90;;;15.50;99.90;;;;;;4930096;29;20054;-72
2022/09/28 13:12:23;;;;;;;2.75;0.98;;;15.50;99.90;;;;;;4932074;29;20134;-70
2022/09/28 13:15:16;;;;;;;2.80;1.13;;;15.40;99.90;;;;;;4915426;29;20071;-72
2022/09/28 13:17:41;;;;;;;;;;;15.40;99.90;;;;;;4931518;29;20060;-74
2022/09/28 13:20:34;;;;;;;2.22;0.93;;;15.30;99.90;;;;;;4931044;29;19977;-72
2022/09/28 13:23:11;;;;;;;2.30;0.60;;;15.40;99.90;;;;;;4916116;29;20052;-70
2022/09/28 13:25:42;;;;;;;1.75;0.77;;;15.60;99.90;;;;;;4929731;29;20052;-67
2022/09/28 13:28:12;;;;;;;0.90;0.70;;;15.60;99.90;;;;;;4930912;29;20134;-67
2022/09/28 13:30:39;;;;;;;2.42;1.00;;;15.70;99.90;;;;;;5016906;28;20535;-67
2022/09/28 13:33:12;;;;;;;2.33;0.70;;;15.70;99.90;;;;;;5050266;28;20044;-66
2022/09/28 13:35:42;;;;;;;3.65;0.50;;;15.50;99.90;;;;;;5041751;28;20496;-68